createdAt,value
2019-04-22T00:00:25.828Z,72.91
2019-04-22T00:00:57.273Z,72.87
2019-04-22T00:01:31.198Z,72.76
2019-04-22T00:02:03.851Z,72.63
2019-04-22T00:02:41.002Z,72.55
2019-04-22T00:03:10.278Z,72.43
2019-04-22T00:03:50.882Z,72.04
2019-04-22T00:04:23.481Z,71.63
2019-04-22T00:05:02.226Z,71.29
2019-04-22T00:05:42.819Z,71.01
2019-04-22T00:06:13.300Z,70.68
2019-04-22T00:06:51.732Z,70.53
2019-04-22T00:07:22.157Z,70.48
2019-04-22T00:08:00.338Z,70.42
2019-04-22T00:08:29.683Z,70.35
2019-04-22T00:09:03.305Z,70.30
2019-04-22T00:09:38.743Z,70.26
2019-04-22T00:10:13.400Z,70.18
2019-04-22T00:10:47.153Z,70.15
2019-04-22T00:11:18.362Z,70.24
2019-04-22T00:11:54.652Z,70.21
2019-04-22T00:12:28.043Z,70.18
2019-04-22T00:12:57.810Z,70.17
2019-04-22T00:13:37.587Z,70.29
2019-04-22T00:14:28.319Z,70.92
2019-04-22T00:15:03.674Z,70.94
2019-04-22T00:15:33.942Z,71.21
2019-04-22T00:16:22.609Z,71.24
2019-04-22T00:16:51.937Z,70.94
2019-04-22T00:17:35.538Z,70.45
2019-04-22T00:18:02.465Z,70.16
2019-04-22T00:18:40.472Z,69.99
2019-04-22T00:19:15.432Z,69.87
2019-04-22T00:19:40.661Z,69.82
2019-04-22T00:20:08.710Z,69.84
2019-04-22T00:20:43.637Z,69.86
2019-04-22T00:21:22.549Z,69.86
2019-04-22T00:22:00.527Z,69.91
2019-04-22T00:22:59.460Z,69.99
2019-04-22T00:23:37.409Z,70.04
2019-04-22T00:24:05.619Z,70.17
2019-04-22T00:24:38.956Z,70.45
2019-04-22T00:25:13.331Z,70.83
2019-04-22T00:25:52.852Z,71.05
2019-04-22T00:26:20.322Z,70.75
2019-04-22T00:26:59.482Z,70.56
2019-04-22T00:27:29.413Z,70.50
2019-04-22T00:28:06.688Z,70.34
2019-04-22T00:28:39.345Z,70.23
2019-04-22T00:29:10.962Z,70.45
2019-04-22T00:30:32.544Z,70.40
2019-04-22T00:30:45.234Z,70.27
2019-04-22T00:31:19.216Z,70.22
2019-04-22T00:31:47.963Z,70.21
2019-04-22T00:32:19.489Z,70.21
2019-04-22T00:32:49.229Z,70.25
2019-04-22T00:33:26.532Z,70.13
2019-04-22T00:33:59.191Z,70.12
2019-04-22T00:34:30.192Z,70.97
2019-04-22T00:35:07.249Z,71.20
2019-04-22T00:35:37.525Z,70.98
2019-04-22T00:36:16.640Z,70.52
2019-04-22T00:36:43.784Z,70.20
2019-04-22T00:37:23.314Z,69.41
2019-04-22T00:37:59.804Z,69.18
2019-04-22T00:38:59.039Z,68.43
2019-04-22T00:39:37.317Z,67.59
2019-04-22T00:40:07.207Z,67.04
2019-04-22T00:40:39.291Z,66.81
2019-04-22T00:41:14.942Z,67.13
2019-04-22T00:41:47.032Z,66.83
2019-04-22T00:42:18.844Z,66.62
2019-04-22T00:42:53.535Z,66.16
2019-04-22T00:43:26.726Z,66.19
2019-04-22T00:44:05.309Z,66.33
2019-04-22T00:44:35.596Z,66.17
2019-04-22T00:45:07.986Z,66.35
2019-04-22T00:45:40.503Z,66.77
2019-04-22T00:46:11.320Z,66.57
2019-04-22T00:46:46.378Z,66.51
2019-04-22T00:47:24.946Z,66.37
2019-04-22T00:47:56.342Z,66.00
2019-04-22T00:48:27.544Z,65.70
2019-04-22T00:49:49.040Z,65.53
2019-04-22T00:50:07.873Z,65.04
2019-04-22T00:50:20.348Z,64.70
2019-04-22T00:50:37.449Z,64.52
2019-04-22T00:51:15.953Z,64.41
2019-04-22T00:51:51.810Z,64.39
2019-04-22T00:52:56.060Z,64.37
2019-04-22T00:53:35.238Z,64.39
2019-04-22T00:54:03.496Z,64.27
2019-04-22T00:54:43.931Z,64.22
2019-04-22T00:55:40.431Z,64.35
2019-04-22T00:56:48.233Z,63.92
2019-04-22T00:57:21.531Z,63.52
2019-04-22T00:58:00.129Z,63.64
2019-04-22T00:58:26.082Z,64.23
2019-04-22T00:58:59.136Z,64.43
2019-04-22T00:59:32.949Z,64.06
2019-04-22T01:00:05.439Z,64.11
2019-04-22T01:00:40.556Z,64.19
2019-04-22T01:01:15.767Z,64.18
2019-04-22T01:01:47.120Z,64.26
2019-04-22T01:02:20.269Z,64.43
2019-04-22T01:02:57.385Z,64.07
2019-04-22T01:03:27.433Z,63.38
2019-04-22T01:04:35.027Z,62.90
2019-04-22T01:05:03.946Z,62.76
2019-04-22T01:05:34.172Z,62.64
2019-04-22T01:06:12.663Z,62.71
2019-04-22T01:06:41.325Z,62.68
2019-04-22T01:07:11.434Z,62.77
2019-04-22T01:07:43.572Z,62.90
2019-04-22T01:08:21.087Z,63.44
2019-04-22T01:08:57.879Z,63.53
2019-04-22T01:09:23.328Z,63.62
2019-04-22T01:09:58.659Z,63.86
2019-04-22T01:10:31.760Z,64.06
2019-04-22T01:11:13.369Z,64.26
2019-04-22T01:11:33.588Z,64.47
2019-04-22T01:12:13.518Z,64.73
2019-04-22T01:12:44.318Z,64.90
2019-04-22T01:13:21.446Z,65.11
2019-04-22T01:13:53.509Z,65.39
2019-04-22T01:14:22.243Z,65.58
2019-04-22T01:15:05.746Z,65.74
2019-04-22T01:15:39.021Z,65.82
2019-04-22T01:16:09.352Z,66.11
2019-04-22T01:16:39.298Z,66.38
2019-04-22T01:17:07.260Z,66.52
2019-04-22T01:17:46.752Z,66.64
2019-04-22T01:18:11.737Z,66.88
2019-04-22T01:18:49.028Z,67.11
2019-04-22T01:19:23.495Z,67.35
2019-04-22T01:19:56.315Z,67.67
2019-04-22T01:20:58.863Z,67.99
2019-04-22T01:21:43.658Z,69.19
2019-04-22T01:22:12.552Z,69.32
2019-04-22T01:22:33.029Z,69.59
2019-04-22T01:23:14.744Z,70.19
2019-04-22T01:23:41.100Z,70.95
2019-04-22T01:24:17.545Z,71.30
2019-04-22T01:24:50.092Z,71.87
2019-04-22T01:25:20.556Z,72.37
2019-04-22T01:25:55.258Z,72.81
2019-04-22T01:26:27.371Z,73.11
2019-04-22T01:27:00.017Z,73.25
2019-04-22T01:27:30.956Z,73.52
2019-04-22T01:28:01.370Z,73.77
2019-04-22T01:28:34.525Z,73.85
2019-04-22T01:29:05.083Z,73.98
2019-04-22T01:29:39.630Z,74.05
2019-04-22T01:30:13.606Z,74.12
2019-04-22T01:30:43.024Z,74.19
2019-04-22T01:31:10.241Z,74.25
2019-04-22T01:31:40.014Z,74.34
2019-04-22T01:32:15.300Z,74.55
2019-04-22T01:32:47.233Z,74.58
2019-04-22T01:33:23.780Z,74.48
2019-04-22T01:34:07.917Z,74.51
2019-04-22T01:34:36.162Z,74.53
2019-04-22T01:35:10.848Z,74.60
2019-04-22T01:35:39.782Z,74.88
2019-04-22T01:36:23.235Z,74.95
2019-04-22T01:36:56.070Z,74.99
2019-04-22T01:37:26.872Z,74.95
2019-04-22T01:37:54.162Z,74.98
2019-04-22T01:38:31.378Z,75.01
2019-04-22T01:39:12.299Z,74.95
2019-04-22T01:39:43.530Z,74.85
2019-04-22T01:40:21.405Z,74.77
2019-04-22T01:40:58.620Z,74.57
2019-04-22T01:41:25.309Z,74.35
2019-04-22T01:41:59.899Z,74.13
2019-04-22T01:42:37.654Z,73.99
2019-04-22T01:43:10.102Z,73.91
2019-04-22T01:43:41.003Z,73.92
2019-04-22T01:44:15.834Z,74.08
2019-04-22T01:44:57.065Z,74.07
2019-04-22T01:45:22.808Z,74.06
2019-04-22T01:45:54.375Z,74.05
2019-04-22T01:46:29.980Z,74.04
2019-04-22T01:46:58.461Z,74.12
2019-04-22T01:47:31.326Z,74.15
2019-04-22T01:48:06.528Z,74.05
2019-04-22T01:48:40.547Z,73.96
2019-04-22T01:49:08.718Z,73.80
2019-04-22T01:49:44.186Z,73.76
2019-04-22T01:50:12.342Z,73.78
2019-04-22T01:50:43.158Z,73.74
2019-04-22T01:51:22.313Z,73.72
2019-04-22T01:51:58.683Z,73.76
2019-04-22T01:52:20.338Z,73.80
2019-04-22T01:53:06.485Z,73.83
2019-04-22T01:53:33.482Z,73.84
2019-04-22T01:54:04.152Z,74.11
2019-04-22T01:54:45.213Z,74.72
2019-04-22T01:55:21.955Z,75.15
2019-04-22T01:55:43.969Z,75.48
2019-04-22T01:56:22.239Z,75.85
2019-04-22T01:56:53.844Z,76.39
2019-04-22T01:57:22.795Z,76.59
2019-04-22T01:57:57.972Z,76.69
2019-04-22T01:58:25.652Z,76.78
2019-04-22T01:58:57.414Z,77.03
2019-04-22T01:59:26.891Z,77.19
2019-04-22T02:00:00.442Z,77.22
2019-04-22T02:00:44.317Z,77.35
2019-04-22T02:01:18.487Z,77.46
2019-04-22T02:01:52.835Z,77.63
2019-04-22T02:02:23.310Z,77.71
2019-04-22T02:02:59.221Z,77.72
2019-04-22T02:04:00.901Z,77.83
2019-04-22T02:04:36.860Z,77.90
2019-04-22T02:05:16.169Z,77.92
2019-04-22T02:05:35.462Z,77.87
2019-04-22T02:06:17.273Z,77.91
2019-04-22T02:07:16.890Z,78.04
2019-04-22T02:07:49.249Z,78.13
2019-04-22T02:08:36.469Z,78.15
2019-04-22T02:09:00.518Z,78.36
2019-04-22T02:09:38.023Z,78.66
2019-04-22T02:10:07.412Z,78.76
2019-04-22T02:10:39.235Z,78.87
2019-04-22T02:11:17.375Z,78.78
2019-04-22T02:12:01.182Z,78.70
2019-04-22T02:12:19.839Z,78.63
2019-04-22T02:12:55.476Z,78.55
2019-04-22T02:13:21.410Z,78.50
2019-04-22T02:13:58.723Z,78.44
2019-04-22T02:14:37.459Z,78.40
2019-04-22T02:15:05.913Z,78.44
2019-04-22T02:15:46.511Z,78.42
2019-04-22T02:16:16.157Z,78.37
2019-04-22T02:16:43.203Z,78.29
2019-04-22T02:17:17.597Z,78.28
2019-04-22T02:17:56.198Z,78.26
2019-04-22T02:18:23.162Z,78.20
2019-04-22T02:18:58.407Z,78.12
2019-04-22T02:19:30.359Z,78.13
2019-04-22T02:19:58.050Z,78.23
2019-04-22T02:20:31.454Z,78.24
2019-04-22T02:21:01.492Z,78.27
2019-04-22T02:21:40.499Z,78.36
2019-04-22T02:22:07.297Z,78.35
2019-04-22T02:23:00.461Z,78.32
2019-04-22T02:24:02.659Z,78.22
2019-04-22T02:24:30.145Z,78.11
2019-04-22T02:25:04.633Z,78.06
2019-04-22T02:25:38.910Z,78.09
2019-04-22T02:26:40.509Z,77.95
2019-04-22T02:27:23.958Z,77.85
2019-04-22T02:28:03.327Z,77.81
2019-04-22T02:28:32.578Z,77.82
2019-04-22T02:29:06.476Z,77.87
2019-04-22T02:29:32.613Z,77.86
2019-04-22T02:30:01.459Z,77.86
2019-04-22T02:30:54.360Z,77.80
2019-04-22T02:32:59.039Z,77.65
2019-04-22T02:34:09.605Z,77.67
2019-04-22T02:34:32.791Z,77.75
2019-04-22T02:35:03.679Z,77.88
2019-04-22T02:35:52.136Z,78.07
2019-04-22T02:37:46.218Z,78.95
2019-04-22T02:38:35.676Z,79.02
2019-04-22T02:39:19.795Z,78.95
2019-04-22T02:40:03.737Z,78.74
2019-04-22T02:40:53.029Z,78.62
2019-04-22T02:41:23.107Z,78.45
2019-04-22T02:41:55.088Z,78.36
2019-04-22T02:42:14.044Z,78.24
2019-04-22T02:42:52.212Z,78.04
2019-04-22T02:43:33.987Z,77.85
2019-04-22T02:44:56.084Z,77.42
2019-04-22T02:45:42.175Z,77.38
2019-04-22T02:47:07.923Z,77.19
2019-04-22T02:47:15.249Z,77.16
2019-04-22T02:47:43.777Z,77.21
2019-04-22T02:49:11.747Z,77.29
2019-04-22T02:50:00.817Z,77.59
2019-04-22T02:50:36.585Z,77.69
2019-04-22T02:51:11.973Z,77.84
2019-04-22T02:51:43.249Z,77.89
2019-04-22T02:52:14.557Z,77.99
2019-04-22T02:53:37.510Z,78.35
2019-04-22T02:55:34.988Z,78.49
2019-04-22T02:56:15.590Z,78.40
2019-04-22T02:57:39.568Z,78.58
2019-04-22T02:58:27.323Z,78.84
2019-04-22T02:59:04.185Z,78.74
2019-04-22T03:00:10.036Z,78.42
2019-04-22T03:00:29.429Z,78.32
2019-04-22T03:01:05.406Z,78.14
2019-04-22T03:01:39.643Z,77.91
2019-04-22T03:02:14.278Z,77.72
2019-04-22T03:02:52.732Z,77.70
2019-04-22T03:04:01.624Z,77.91
2019-04-22T03:04:22.829Z,78.00
2019-04-22T03:05:13.102Z,78.13
2019-04-22T03:05:45.526Z,78.51
2019-04-22T03:06:18.323Z,78.89
2019-04-22T03:06:43.351Z,79.36
2019-04-22T03:07:12.726Z,79.56
2019-04-22T03:07:50.782Z,79.33
2019-04-22T03:08:23.930Z,79.10
2019-04-22T03:08:53.816Z,79.20
2019-04-22T03:09:34.052Z,79.26
2019-04-22T03:09:57.765Z,79.27
2019-04-22T03:10:47.333Z,79.23
2019-04-22T03:12:02.533Z,79.09
2019-04-22T03:12:19.614Z,79.14
2019-04-22T03:12:41.250Z,79.11
2019-04-22T03:13:34.177Z,79.13
2019-04-22T03:14:04.636Z,79.09
2019-04-22T03:14:22.895Z,79.00
2019-04-22T03:14:54.872Z,79.01
2019-04-22T03:15:41.042Z,79.00
2019-04-22T03:16:17.843Z,78.99
2019-04-22T03:16:50.391Z,79.03
2019-04-22T03:17:18.700Z,79.18
2019-04-22T03:18:35.458Z,79.36
2019-04-22T03:19:02.484Z,79.36
2019-04-22T03:19:48.207Z,79.25
2019-04-22T03:20:37.752Z,79.12
2019-04-22T03:21:10.656Z,78.73
2019-04-22T03:21:38.534Z,78.35
2019-04-22T03:22:16.931Z,77.91
2019-04-22T03:22:46.966Z,77.72
2019-04-22T03:23:47.635Z,77.60
2019-04-22T03:24:25.723Z,77.40
2019-04-22T03:26:24.561Z,76.83
2019-04-22T03:27:40.216Z,76.33
2019-04-22T03:28:24.096Z,76.31
2019-04-22T03:28:51.163Z,76.23
2019-04-22T03:29:17.968Z,76.29
2019-04-22T03:30:26.615Z,76.10
2019-04-22T03:32:16.575Z,76.02
2019-04-22T03:32:39.427Z,76.14
2019-04-22T03:33:29.433Z,76.73
2019-04-22T03:34:49.438Z,76.95
2019-04-22T03:36:18.674Z,77.82
2019-04-22T03:38:19.828Z,78.00
2019-04-22T03:39:06.841Z,78.04
2019-04-22T03:40:04.210Z,78.21
2019-04-22T03:41:58.039Z,78.21
2019-04-22T03:43:33.801Z,78.27
2019-04-22T03:44:10.541Z,78.38
2019-04-22T03:45:00.537Z,78.61
2019-04-22T03:45:55.801Z,78.77
2019-04-22T03:46:43.961Z,78.62
2019-04-22T03:47:41.514Z,77.80
2019-04-22T03:48:17.665Z,77.04
2019-04-22T03:49:07.178Z,76.80
2019-04-22T03:50:25.359Z,75.79
2019-04-22T03:51:07.534Z,75.66
2019-04-22T03:52:36.910Z,75.02
2019-04-22T03:53:15.093Z,74.87
2019-04-22T03:53:53.391Z,74.65
2019-04-22T03:54:31.263Z,74.48
2019-04-22T03:55:03.265Z,74.48
2019-04-22T03:55:43.528Z,74.35
2019-04-22T03:56:04.814Z,74.39
2019-04-22T03:57:12.795Z,74.49
2019-04-22T03:57:48.893Z,74.48
2019-04-22T03:58:26.217Z,74.07
2019-04-22T03:58:49.585Z,73.80
2019-04-22T03:59:26.869Z,73.75
2019-04-22T04:00:55.531Z,72.95
2019-04-22T04:01:37.071Z,72.93
2019-04-22T04:03:09.775Z,72.75
2019-04-22T04:03:57.825Z,72.57
2019-04-22T04:04:36.016Z,72.41
2019-04-22T04:04:59.450Z,72.62
2019-04-22T04:05:41.182Z,72.99
2019-04-22T04:06:41.621Z,72.22
2019-04-22T04:07:47.512Z,72.36
2019-04-22T04:08:26.898Z,72.37
2019-04-22T04:10:01.449Z,70.08
2019-04-22T04:10:35.384Z,69.43
2019-04-22T04:10:53.182Z,68.23
2019-04-22T04:11:45.556Z,67.45
2019-04-22T04:12:03.580Z,66.71
2019-04-22T04:12:37.807Z,65.92
2019-04-22T04:13:08.527Z,64.42
2019-04-22T04:13:46.040Z,63.82
2019-04-22T04:14:55.686Z,63.10
2019-04-22T04:15:52.489Z,63.60
2019-04-22T04:16:35.025Z,63.13
2019-04-22T04:17:02.412Z,62.77
2019-04-22T04:17:45.385Z,62.30
2019-04-22T04:18:05.007Z,62.08
2019-04-22T04:18:47.461Z,61.48
2019-04-22T04:19:27.776Z,61.20
2019-04-22T04:21:41.236Z,59.36
2019-04-22T04:22:08.001Z,58.93
2019-04-22T04:23:50.523Z,56.92
2019-04-22T04:25:08.239Z,56.02
2019-04-22T04:26:37.378Z,54.48
2019-04-22T04:27:10.940Z,53.80
2019-04-22T04:28:03.553Z,53.27
2019-04-22T04:29:32.930Z,52.28
2019-04-22T04:30:18.847Z,51.18
2019-04-22T04:31:09.497Z,50.65
2019-04-22T04:32:16.612Z,50.40
2019-04-22T04:33:40.754Z,49.67
2019-04-22T04:34:25.023Z,49.79
2019-04-22T04:35:03.246Z,50.38
2019-04-22T04:36:32.556Z,49.58
2019-04-22T04:38:11.581Z,48.02
2019-04-22T04:38:36.590Z,47.33
2019-04-22T04:39:05.362Z,47.05
2019-04-22T04:39:44.219Z,46.92
2019-04-22T04:40:49.040Z,47.43
2019-04-22T04:41:28.377Z,46.92
2019-04-22T04:43:05.553Z,44.75
2019-04-22T04:43:42.081Z,44.02
2019-04-22T04:44:15.158Z,43.66
2019-04-22T04:45:21.719Z,43.56
2019-04-22T04:46:27.112Z,43.01
2019-04-22T04:47:56.580Z,42.43
2019-04-22T04:48:47.238Z,43.02
2019-04-22T04:50:11.994Z,42.42
2019-04-22T04:50:51.024Z,42.16
2019-04-22T04:51:26.912Z,41.79
2019-04-22T04:51:47.176Z,41.48
2019-04-22T04:52:39.136Z,41.01
2019-04-22T04:53:08.291Z,40.79
2019-04-22T04:53:52.759Z,40.54
2019-04-22T04:54:15.505Z,40.31
2019-04-22T04:54:35.560Z,40.18
2019-04-22T04:55:35.099Z,39.78
2019-04-22T05:03:27.757Z,38.23
2019-04-22T05:03:58.117Z,38.04
2019-04-22T05:04:37.147Z,37.93
2019-04-22T05:05:06.241Z,37.84
2019-04-22T05:05:26.824Z,37.65
2019-04-22T05:06:07.474Z,37.60
2019-04-22T05:06:42.979Z,37.55
2019-04-22T05:08:33.053Z,38.39
2019-04-22T05:09:21.449Z,39.24
2019-04-22T05:09:59.523Z,39.47
2019-04-22T05:10:41.155Z,39.48
2019-04-22T05:12:16.031Z,38.93
2019-04-22T05:14:30.775Z,37.47
2019-04-22T05:15:00.752Z,37.29
2019-04-22T05:15:27.265Z,37.32
2019-04-22T05:16:17.454Z,37.31
2019-04-22T05:16:46.443Z,36.82
2019-04-22T05:17:13.119Z,36.49
2019-04-22T05:18:14.846Z,35.92
2019-04-22T05:18:49.157Z,35.77
2019-04-22T05:19:47.670Z,35.10
2019-04-22T05:21:09.322Z,34.54
2019-04-22T05:21:42.203Z,34.61
2019-04-22T05:21:58.011Z,35.57
2019-04-22T05:22:35.703Z,36.06
2019-04-22T05:23:05.827Z,36.20
2019-04-22T05:24:00.958Z,36.34
2019-04-22T05:24:16.789Z,36.74
2019-04-22T05:24:47.145Z,36.98
2019-04-22T05:25:19.049Z,37.27
2019-04-22T05:25:48.880Z,36.68
2019-04-22T05:26:27.909Z,36.68
2019-04-22T05:26:57.015Z,36.18
2019-04-22T05:28:04.007Z,36.42
2019-04-22T05:28:38.136Z,36.94
2019-04-22T05:29:11.410Z,37.37
2019-04-22T05:30:23.430Z,38.01
2019-04-22T05:30:42.431Z,37.72
2019-04-22T05:31:56.997Z,37.37
2019-04-22T05:32:27.098Z,37.35
2019-04-22T05:32:55.329Z,37.33
2019-04-22T05:33:33.205Z,37.26
2019-04-22T05:34:04.534Z,37.32
2019-04-22T05:34:33.566Z,37.50
2019-04-22T05:35:42.437Z,38.79
2019-04-22T05:36:17.522Z,38.77
2019-04-22T05:36:48.207Z,38.60
2019-04-22T05:37:22.591Z,38.44
2019-04-22T05:37:58.006Z,38.34
2019-04-22T05:38:33.262Z,38.13
2019-04-22T05:39:00.058Z,37.74
2019-04-22T05:39:28.442Z,37.45
2019-04-22T05:40:08.826Z,37.80
2019-04-22T05:40:34.778Z,37.99
2019-04-22T05:41:17.104Z,38.38
2019-04-22T05:41:48.389Z,38.06
2019-04-22T05:42:17.820Z,37.93
2019-04-22T05:42:58.892Z,37.98
2019-04-22T05:43:30.986Z,37.87
2019-04-22T05:44:02.801Z,37.87
2019-04-22T05:44:37.286Z,37.71
2019-04-22T05:45:10.341Z,37.62
2019-04-22T05:45:35.796Z,37.49
2019-04-22T05:46:09.604Z,37.54
2019-04-22T05:46:45.942Z,37.43
2019-04-22T05:47:15.000Z,37.49
2019-04-22T05:47:52.019Z,38.09
2019-04-22T05:48:30.581Z,38.18
2019-04-22T05:49:14.617Z,38.20
2019-04-22T05:49:41.630Z,38.11
2019-04-22T05:50:02.349Z,38.13
2019-04-22T05:50:31.319Z,38.07
2019-04-22T05:51:25.822Z,38.08
2019-04-22T05:52:14.877Z,38.38
2019-04-22T05:52:49.772Z,38.28
2019-04-22T05:53:14.819Z,38.29
2019-04-22T05:53:57.466Z,38.48
2019-04-22T05:54:27.870Z,38.57
2019-04-22T05:55:02.503Z,38.49
2019-04-22T05:55:36.039Z,38.39
2019-04-22T05:56:04.218Z,38.59
2019-04-22T05:57:14.539Z,38.23
2019-04-22T05:57:37.263Z,38.21
2019-04-22T05:58:18.876Z,38.14
2019-04-22T05:58:54.106Z,38.22
2019-04-22T05:59:27.383Z,38.70
2019-04-22T06:01:30.746Z,39.04
2019-04-22T06:02:21.103Z,39.38
2019-04-22T06:02:47.637Z,39.82
2019-04-22T06:03:12.242Z,40.38
2019-04-22T06:03:56.483Z,39.74
2019-04-22T06:04:17.768Z,39.82
2019-04-22T06:04:53.998Z,40.04
2019-04-22T06:05:24.728Z,40.29
2019-04-22T06:05:55.678Z,40.42
2019-04-22T06:06:43.067Z,40.47
2019-04-22T06:07:00.382Z,40.42
2019-04-22T06:07:36.869Z,40.48
2019-04-22T06:08:11.898Z,40.31
2019-04-22T06:08:48.702Z,40.40
2019-04-22T06:09:12.469Z,40.34
2019-04-22T06:09:50.859Z,40.35
2019-04-22T06:10:39.423Z,40.30
2019-04-22T06:10:58.112Z,40.24
2019-04-22T06:11:31.249Z,40.19
2019-04-22T06:11:54.478Z,40.34
2019-04-22T06:12:26.420Z,40.43
2019-04-22T06:13:01.101Z,40.65
2019-04-22T06:13:36.630Z,41.02
2019-04-22T06:14:12.392Z,41.15
2019-04-22T06:14:39.806Z,41.66
2019-04-22T06:15:21.228Z,40.60
2019-04-22T06:15:49.242Z,40.52
2019-04-22T06:16:26.444Z,40.89
2019-04-22T06:16:57.167Z,40.22
2019-04-22T06:17:31.326Z,39.89
2019-04-22T06:18:33.373Z,40.86
2019-04-22T06:19:44.399Z,41.57
2019-04-22T06:20:20.232Z,41.32
2019-04-22T06:20:53.845Z,40.30
2019-04-22T06:21:18.727Z,39.50
2019-04-22T06:21:49.989Z,39.23
2019-04-22T06:23:40.410Z,37.94
2019-04-22T06:24:11.217Z,38.31
2019-04-22T06:24:55.256Z,38.15
2019-04-22T06:25:22.681Z,38.51
2019-04-22T06:25:57.481Z,39.51
2019-04-22T06:27:31.022Z,41.10
2019-04-22T06:28:03.462Z,41.50
2019-04-22T06:29:09.347Z,40.89
2019-04-22T06:29:31.605Z,40.21
2019-04-22T06:30:10.772Z,39.98
2019-04-22T06:31:16.035Z,39.95
2019-04-22T06:32:11.706Z,40.22
2019-04-22T06:32:26.423Z,40.25
2019-04-22T06:33:00.846Z,40.62
2019-04-22T06:33:34.123Z,41.01
2019-04-22T06:34:05.929Z,41.52
2019-04-22T06:34:40.418Z,41.70
2019-04-22T06:35:19.806Z,41.60
2019-04-22T06:35:56.323Z,41.73
2019-04-22T06:36:21.122Z,41.85
2019-04-22T06:36:53.219Z,42.58
2019-04-22T06:38:18.117Z,42.35
2019-04-22T06:38:40.412Z,42.32
2019-04-22T06:38:59.205Z,42.76
2019-04-22T06:39:36.986Z,42.23
2019-04-22T06:40:09.620Z,42.46
2019-04-22T06:40:42.588Z,42.28
2019-04-22T06:41:17.105Z,42.10
2019-04-22T06:41:47.712Z,42.17
2019-04-22T06:42:26.614Z,42.53
2019-04-22T06:42:58.580Z,42.33
2019-04-22T06:43:22.419Z,42.66
2019-04-22T06:44:09.410Z,43.07
2019-04-22T06:44:34.231Z,42.96
2019-04-22T06:45:07.664Z,42.81
2019-04-22T06:45:33.795Z,42.71
2019-04-22T06:46:17.097Z,43.03
2019-04-22T06:46:47.466Z,43.15
2019-04-22T06:47:28.051Z,44.23
2019-04-22T06:48:04.520Z,42.74
2019-04-22T06:48:28.441Z,42.40
2019-04-22T06:48:55.187Z,42.45
2019-04-22T06:49:31.853Z,42.89
2019-04-22T06:49:59.162Z,42.67
2019-04-22T06:50:40.185Z,42.38
2019-04-22T06:51:09.482Z,42.90
2019-04-22T06:52:52.395Z,42.91
2019-04-22T06:53:23.708Z,43.01
2019-04-22T06:53:53.713Z,43.07
2019-04-22T06:54:28.186Z,42.75
2019-04-22T06:55:03.939Z,42.78
2019-04-22T06:55:35.708Z,43.13
2019-04-22T06:56:06.421Z,42.95
2019-04-22T06:56:42.859Z,43.04
2019-04-22T06:57:16.527Z,42.89
2019-04-22T06:57:43.466Z,42.29
2019-04-22T06:58:15.217Z,42.34
2019-04-22T06:58:53.659Z,42.31
2019-04-22T06:59:25.158Z,42.56
2019-04-22T07:00:01.722Z,43.04
2019-04-22T07:00:35.131Z,43.59
2019-04-22T07:01:05.914Z,44.08
2019-04-22T07:01:43.271Z,44.32
2019-04-22T07:02:55.853Z,44.76
2019-04-22T07:04:24.322Z,45.44
2019-04-22T07:04:59.134Z,45.52
2019-04-22T07:05:28.019Z,45.34
2019-04-22T07:06:19.396Z,45.07
2019-04-22T07:07:08.292Z,44.94
2019-04-22T07:07:38.390Z,45.23
2019-04-22T07:08:39.327Z,43.97
2019-04-22T07:09:59.974Z,42.86
2019-04-22T07:10:35.267Z,42.93
2019-04-22T07:10:58.253Z,43.34
2019-04-22T07:11:33.895Z,43.14
2019-04-22T07:12:05.025Z,43.28
2019-04-22T07:12:36.444Z,43.33
2019-04-22T07:13:10.997Z,43.59
2019-04-22T07:13:43.516Z,43.79
2019-04-22T07:14:18.172Z,43.92
2019-04-22T07:14:48.454Z,43.97
2019-04-22T07:15:35.798Z,43.86
2019-04-22T07:16:32.381Z,43.52
2019-04-22T07:17:05.221Z,43.47
2019-04-22T07:17:38.066Z,43.45
2019-04-22T07:18:11.450Z,43.20
2019-04-22T07:19:13.823Z,43.17
2019-04-22T07:19:45.288Z,42.65
2019-04-22T07:20:17.775Z,42.36
2019-04-22T07:20:55.438Z,42.25
2019-04-22T07:21:27.428Z,42.32
2019-04-22T07:21:57.615Z,42.36
2019-04-22T07:22:33.916Z,41.90
2019-04-22T07:23:11.948Z,42.25
2019-04-22T07:23:41.703Z,42.04
2019-04-22T07:25:29.059Z,41.75
2019-04-22T07:25:49.286Z,42.00
2019-04-22T07:26:20.480Z,42.45
2019-04-22T07:26:50.798Z,42.45
2019-04-22T07:27:40.440Z,41.96
2019-04-22T07:27:58.304Z,42.91
2019-04-22T07:28:44.862Z,43.25
2019-04-22T07:29:21.803Z,42.55
2019-04-22T07:29:40.834Z,42.32
2019-04-22T07:30:16.124Z,42.64
2019-04-22T07:30:58.710Z,42.15
2019-04-22T07:31:15.807Z,42.07
2019-04-22T07:31:55.762Z,41.62
2019-04-22T07:32:47.758Z,41.48
2019-04-22T07:33:12.616Z,41.07
2019-04-22T07:33:32.432Z,41.04
2019-04-22T07:34:17.843Z,41.17
2019-04-22T07:34:36.048Z,40.73
2019-04-22T07:35:08.570Z,40.83
2019-04-22T07:35:51.815Z,41.60
2019-04-22T07:36:36.963Z,42.22
2019-04-22T07:37:11.013Z,41.82
2019-04-22T07:37:28.174Z,41.64
2019-04-22T07:37:47.072Z,41.56
2019-04-22T07:38:56.529Z,41.26
2019-04-22T07:39:29.718Z,41.02
2019-04-22T07:40:02.336Z,40.14
2019-04-22T07:40:41.579Z,40.15
2019-04-22T07:41:09.455Z,40.45
2019-04-22T07:41:44.643Z,40.22
2019-04-22T07:42:22.736Z,40.37
2019-04-22T07:42:49.085Z,40.09
2019-04-22T07:43:27.931Z,39.58
2019-04-22T07:44:31.045Z,39.57
2019-04-22T07:45:05.029Z,39.46
2019-04-22T07:45:36.191Z,39.24
2019-04-22T07:46:11.317Z,39.22
2019-04-22T07:46:44.502Z,39.25
2019-04-22T07:47:18.468Z,39.15
2019-04-22T07:48:33.962Z,38.83
2019-04-22T07:48:51.833Z,38.65
2019-04-22T07:49:33.589Z,39.27
2019-04-22T07:50:03.913Z,39.09
2019-04-22T07:50:45.635Z,39.68
2019-04-22T07:51:07.234Z,39.14
2019-04-22T07:51:36.817Z,39.18
2019-04-22T07:52:10.075Z,39.42
2019-04-22T07:52:46.731Z,38.71
2019-04-22T07:53:17.379Z,38.35
2019-04-22T07:53:51.656Z,38.38
2019-04-22T07:54:26.380Z,38.18
2019-04-22T07:54:56.971Z,38.37
2019-04-22T07:55:32.538Z,39.40
2019-04-22T07:56:05.298Z,40.90
2019-04-22T07:56:40.950Z,40.86
2019-04-22T07:57:15.336Z,39.98
2019-04-22T07:57:47.646Z,39.11
2019-04-22T07:58:18.691Z,38.68
2019-04-22T07:58:50.346Z,38.94
2019-04-22T07:59:23.570Z,38.85
2019-04-22T07:59:59.552Z,37.59
2019-04-22T08:00:29.728Z,37.17
2019-04-22T08:01:03.988Z,38.00
2019-04-22T08:01:30.837Z,37.79
2019-04-22T08:02:10.401Z,37.58
2019-04-22T08:02:44.142Z,37.35
2019-04-22T08:03:22.085Z,37.87
2019-04-22T08:04:13.156Z,37.59
2019-04-22T08:05:07.329Z,37.14
2019-04-22T08:06:05.375Z,36.98
2019-04-22T08:06:31.412Z,37.62
2019-04-22T08:07:14.375Z,37.88
2019-04-22T08:07:35.977Z,39.18
2019-04-22T08:08:21.477Z,37.94
2019-04-22T08:08:45.115Z,36.79
2019-04-22T08:09:19.862Z,36.44
2019-04-22T08:10:04.531Z,36.88
2019-04-22T08:10:29.970Z,35.51
2019-04-22T08:11:22.141Z,35.85
2019-04-22T08:11:46.957Z,34.89
2019-04-22T08:11:58.110Z,34.63
2019-04-22T08:12:39.000Z,35.13
2019-04-22T08:13:14.951Z,36.53
2019-04-22T08:13:40.626Z,36.31
2019-04-22T08:14:14.969Z,35.00
2019-04-22T08:14:45.618Z,35.52
2019-04-22T08:15:21.318Z,35.60
2019-04-22T08:15:58.122Z,35.68
2019-04-22T08:16:29.559Z,35.93
2019-04-22T08:17:14.377Z,35.63
2019-04-22T08:18:10.148Z,35.55
2019-04-22T08:18:39.571Z,36.02
2019-04-22T08:19:15.803Z,34.86
2019-04-22T08:19:48.421Z,35.52
2019-04-22T08:20:23.827Z,35.96
2019-04-22T08:20:56.696Z,35.62
2019-04-22T08:21:23.645Z,35.83
2019-04-22T08:22:01.174Z,36.29
2019-04-22T08:22:26.053Z,37.09
2019-04-22T08:23:09.044Z,37.51
2019-04-22T08:24:29.388Z,37.57
2019-04-22T08:24:51.261Z,37.85
2019-04-22T08:25:20.983Z,38.12
2019-04-22T08:25:47.466Z,38.34
2019-04-22T08:26:27.504Z,38.28
2019-04-22T08:27:01.216Z,37.72
2019-04-22T08:27:30.425Z,37.05
2019-04-22T08:28:05.418Z,36.78
2019-04-22T08:28:40.750Z,36.58
2019-04-22T08:29:14.524Z,36.51
2019-04-22T08:29:52.265Z,36.45
2019-04-22T08:30:20.365Z,36.35
2019-04-22T08:31:26.299Z,36.32
2019-04-22T08:32:01.290Z,36.73
2019-04-22T08:32:29.248Z,36.93
2019-04-22T08:33:04.098Z,36.71
2019-04-22T08:33:35.280Z,36.36
2019-04-22T08:34:16.669Z,36.42
2019-04-22T08:34:39.773Z,36.71
2019-04-22T08:35:20.225Z,36.32
2019-04-22T08:36:02.101Z,36.33
2019-04-22T08:37:13.086Z,36.68
2019-04-22T08:37:57.616Z,36.59
2019-04-22T08:38:37.251Z,36.89